sensor_id;sensor_type;location;lat;lon;timestamp;pressure;altitude;pressure_sealevel;temperature;humidity
3832;BME280;12460;42.662;23.288;2023-03-01T00:03:14;95009.13;;;6.08;76.51
3832;BME280;12460;42.662;23.288;2023-03-01T00:18:19;94986.34;;;6.04;76.06
3832;BME280;12460;42.662;23.288;2023-03-01T00:33:23;94941.66;;;5.91;75.23
3832;BME280;12460;42.662;23.288;2023-03-01T00:48:28;94944.66;;;5.93;74.93
3832;BME280;12460;42.662;23.288;2023-03-01T01:03:32;94949.81;;;5.89;75.53
3832;BME280;12460;42.662;23.288;2023-03-01T01:18:36;94947.88;;;5.97;74.90
3832;BME280;12460;42.662;23.288;2023-03-01T01:33:42;94961.63;;;5.95;74.60
3832;BME280;12460;42.662;23.288;2023-03-01T01:48:55;94984.84;;;6.03;73.29
3832;BME280;12460;42.662;23.288;2023-03-01T02:04:00;94960.25;;;6.02;73.82
3832;BME280;12460;42.662;23.288;2023-03-01T02:19:05;94941.25;;;6.00;73.12
3832;BME280;12460;42.662;23.288;2023-03-01T02:34:17;94941.44;;;5.89;73.11
3832;BME280;12460;42.662;23.288;2023-03-01T02:49:28;94956.03;;;5.95;72.66
3832;BME280;12460;42.662;23.288;2023-03-01T03:04:32;94929.44;;;5.76;73.55
3832;BME280;12460;42.662;23.288;2023-03-01T03:19:37;94961.19;;;5.73;73.74
3832;BME280;12460;42.662;23.288;2023-03-01T03:34:42;94951.16;;;5.64;74.73
3832;BME280;12460;42.662;23.288;2023-03-01T03:49:46;94958.69;;;5.50;75.46
3832;BME280;12460;42.662;23.288;2023-03-01T04:04:51;94954.69;;;5.46;75.66
3832;BME280;12460;42.662;23.288;2023-03-01T04:19:55;94958.09;;;5.39;75.75
3832;BME280;12460;42.662;23.288;2023-03-01T04:35:00;94954.78;;;5.40;75.29
3832;BME280;12460;42.662;23.288;2023-03-01T04:50:06;94933.00;;;5.39;74.79
3832;BME280;12460;42.662;23.288;2023-03-01T05:05:12;94940.53;;;5.44;75.46
3832;BME280;12460;42.662;23.288;2023-03-01T05:20:17;94948.06;;;5.49;74.47
3832;BME280;12460;42.662;23.288;2023-03-01T05:35:26;94946.09;;;5.44;74.32
3832;BME280;12460;42.662;23.288;2023-03-01T05:50:34;94946.31;;;5.46;74.90
3832;BME280;12460;42.662;23.288;2023-03-01T06:05:41;94974.31;;;5.59;73.45
3832;BME280;12460;42.662;23.288;2023-03-01T06:20:52;95008.50;;;5.78;73.32
3832;BME280;12460;42.662;23.288;2023-03-01T06:35:57;95007.47;;;5.81;73.06
3832;BME280;12460;42.662;23.288;2023-03-01T06:51:03;95009.44;;;5.86;72.81
3832;BME280;12460;42.662;23.288;2023-03-01T07:06:08;95002.00;;;5.94;71.39
3832;BME280;12460;42.662;23.288;2023-03-01T07:21:13;94996.69;;;6.09;70.24
3832;BME280;12460;42.662;23.288;2023-03-01T07:36:18;94980.06;;;6.17;69.86
3832;BME280;12460;42.662;23.288;2023-03-01T07:51:24;94980.38;;;6.45;69.50
3832;BME280;12460;42.662;23.288;2023-03-01T08:06:28;94989.63;;;6.66;67.57
3832;BME280;12460;42.662;23.288;2023-03-01T08:21:33;94981.91;;;6.72;68.40
3832;BME280;12460;42.662;23.288;2023-03-01T08:36:43;94959.91;;;6.95;67.04
3832;BME280;12460;42.662;23.288;2023-03-01T08:51:48;94955.16;;;7.16;64.24
3832;BME280;12460;42.662;23.288;2023-03-01T09:06:53;94966.41;;;7.97;62.19
3832;BME280;12460;42.662;23.288;2023-03-01T09:21:58;94966.84;;;7.88;62.22
3832;BME280;12460;42.662;23.288;2023-03-01T09:37:02;94958.63;;;7.69;62.99
3832;BME280;12460;42.662;23.288;2023-03-01T10:07:53;94923.91;;;7.85;63.22
3832;BME280;12460;42.662;23.288;2023-03-01T10:23:04;94919.97;;;8.01;63.09
3832;BME280;12460;42.662;23.288;2023-03-01T10:38:11;94924.00;;;8.13;62.83
3832;BME280;12460;42.662;23.288;2023-03-01T11:08:38;94905.84;;;8.07;62.95
3832;BME280;12460;42.662;23.288;2023-03-01T11:23:45;94922.50;;;8.12;62.65
3832;BME280;12460;42.662;23.288;2023-03-01T11:38:50;94901.66;;;8.00;63.16
3832;BME280;12460;42.662;23.288;2023-03-01T11:54:05;94875.72;;;8.20;63.00
3832;BME280;12460;42.662;23.288;2023-03-01T12:54:57;94834.47;;;9.21;58.37
3832;BME280;12460;42.662;23.288;2023-03-01T13:10:26;94836.13;;;9.08;58.53
3832;BME280;12460;42.662;23.288;2023-03-01T13:25:33;94845.69;;;9.13;59.18
3832;BME280;12460;42.662;23.288;2023-03-01T13:56:02;94833.00;;;8.84;61.12
3832;BME280;12460;42.662;23.288;2023-03-01T14:26:22;94826.38;;;8.66;62.44
3832;BME280;12460;42.662;23.288;2023-03-01T14:41:28;94825.91;;;8.55;62.18
3832;BME280;12460;42.662;23.288;2023-03-01T14:56:44;94804.75;;;7.97;64.48
3832;BME280;12460;42.662;23.288;2023-03-01T15:11:50;94799.44;;;7.86;65.96
3832;BME280;12460;42.662;23.288;2023-03-01T15:26:59;94810.19;;;7.41;66.64
3832;BME280;12460;42.662;23.288;2023-03-01T15:42:35;94801.28;;;7.09;68.55
3832;BME280;12460;42.662;23.288;2023-03-01T15:57:38;94795.63;;;6.88;69.15
3832;BME280;12460;42.662;23.288;2023-03-01T16:12:43;94787.09;;;6.73;69.12
3832;BME280;12460;42.662;23.288;2023-03-01T16:27:50;94795.16;;;6.63;70.67
3832;BME280;12460;42.662;23.288;2023-03-01T16:42:56;94792.34;;;6.50;70.76
3832;BME280;12460;42.662;23.288;2023-03-01T16:58:03;94792.69;;;6.47;70.43
3832;BME280;12460;42.662;23.288;2023-03-01T17:13:10;94794.31;;;6.29;71.07
3832;BME280;12460;42.662;23.288;2023-03-01T17:28:15;94789.25;;;6.27;71.96
3832;BME280;12460;42.662;23.288;2023-03-01T17:43:19;94802.16;;;6.17;71.70
3832;BME280;12460;42.662;23.288;2023-03-01T17:58:24;94797.84;;;6.16;71.69
3832;BME280;12460;42.662;23.288;2023-03-01T18:13:29;94810.63;;;6.12;72.15
3832;BME280;12460;42.662;23.288;2023-03-01T18:28:33;94803.88;;;6.07;71.73
3832;BME280;12460;42.662;23.288;2023-03-01T18:43:36;94828.34;;;6.14;71.38
3832;BME280;12460;42.662;23.288;2023-03-01T18:58:42;94830.72;;;6.10;70.81
3832;BME280;12460;42.662;23.288;2023-03-01T19:13:47;94828.34;;;6.14;71.50
3832;BME280;12460;42.662;23.288;2023-03-01T19:28:55;94846.81;;;6.44;69.95
3832;BME280;12460;42.662;23.288;2023-03-01T19:44:00;94855.63;;;6.34;70.13
3832;BME280;12460;42.662;23.288;2023-03-01T19:59:08;94860.88;;;6.25;71.40
3832;BME280;12460;42.662;23.288;2023-03-01T20:14:13;94881.19;;;6.25;71.92
3832;BME280;12460;42.662;23.288;2023-03-01T20:29:18;94888.72;;;6.30;70.98
3832;BME280;12460;42.662;23.288;2023-03-01T20:44:23;94881.41;;;6.27;72.00
3832;BME280;12460;42.662;23.288;2023-03-01T20:59:27;94888.91;;;6.19;72.00
3832;BME280;12460;42.662;23.288;2023-03-01T21:14:32;94883.84;;;6.18;71.83
3832;BME280;12460;42.662;23.288;2023-03-01T21:29:45;94897.03;;;6.04;73.26
3832;BME280;12460;42.662;23.288;2023-03-01T21:44:50;94890.94;;;6.06;73.88
3832;BME280;12460;42.662;23.288;2023-03-01T21:59:54;94890.03;;;5.98;73.89
3832;BME280;12460;42.662;23.288;2023-03-01T22:15:00;94898.59;;;5.87;74.01
3832;BME280;12460;42.662;23.288;2023-03-01T22:30:07;94886.91;;;5.88;74.27
3832;BME280;12460;42.662;23.288;2023-03-01T22:45:12;94885.28;;;5.93;73.60
3832;BME280;12460;42.662;23.288;2023-03-01T23:00:17;94884.53;;;5.92;74.05
3832;BME280;12460;42.662;23.288;2023-03-01T23:15:20;94876.94;;;5.93;72.60
3832;BME280;12460;42.662;23.288;2023-03-01T23:30:24;94872.16;;;6.19;72.06
3832;BME280;12460;42.662;23.288;2023-03-01T23:45:27;94868.53;;;6.38;71.55
